Time;durP1;ratioP1;P1;durP2;ratioP2;P2;SDS_P1;SDS_P2;PMS_P1;PMS_P2;Temp;Humidity;BMP_temperature;BMP_pressure;BME280_temperature;BME280_humidity;BME280_pressure;Samples;Min_cycle;Max_cycle;Signal;HPM_P1;HPM_P2
2023/12/19 00:00:27;;;;;;;107.90;46.10;;;7.60;99.90;;;;;;5024762;28;20032;-75
2023/12/19 00:02:53;;;;;;;114.32;47.08;;;7.60;99.90;;;;;;5017183;28;20025;-75
2023/12/19 00:05:18;;;;;;;120.55;48.38;;;7.60;99.90;;;;;;5025655;28;20070;-75
2023/12/19 00:07:45;;;;;;;111.18;46.80;;;7.60;99.90;;;;;;5025430;28;20021;-75
2023/12/19 00:10:11;;;;;;;109.13;46.60;;;7.60;99.90;;;;;;5025773;28;20021;-75
2023/12/19 00:12:37;;;;;;;107.22;46.78;;;7.70;99.90;;;;;;5022192;28;20417;-74
2023/12/19 00:15:07;;;;;;;114.40;48.17;;;7.70;99.90;;;;;;5025249;28;20041;-75
2023/12/19 00:17:33;;;;;;;103.10;43.97;;;7.60;99.90;;;;;;5022840;28;20486;-75
2023/12/19 00:19:58;;;;;;;99.28;44.38;;;7.60;99.90;;;;;;5022848;28;20028;-75
2023/12/19 00:22:25;;;;;;;104.93;44.45;;;7.70;99.90;;;;;;5018657;28;20026;-75
2023/12/19 00:24:53;;;;;;;101.97;42.72;;;7.70;99.90;;;;;;5019446;28;20512;-74
2023/12/19 00:27:19;;;;;;;97.93;42.80;;;7.70;99.90;;;;;;5015436;28;20063;-75
2023/12/19 00:29:44;;;;;;;99.05;42.45;;;7.70;99.90;;;;;;5008827;28;20026;-75
2023/12/19 00:32:10;;;;;;;100.63;43.55;;;7.70;99.90;;;;;;5017840;28;20024;-75
2023/12/19 00:34:35;;;;;;;112.70;44.67;;;7.70;99.90;;;;;;5017187;28;20078;-75
2023/12/19 00:37:01;;;;;;;107.40;47.25;;;7.80;99.90;;;;;;5012817;28;20030;-75
2023/12/19 00:39:27;;;;;;;116.78;48.28;;;7.80;99.90;;;;;;5009278;28;20117;-75
2023/12/19 00:41:53;;;;;;;114.07;47.33;;;7.80;99.90;;;;;;5009041;28;20029;-74
2023/12/19 00:44:19;;;;;;;133.15;50.42;;;7.80;99.90;;;;;;5017836;28;20021;-75
2023/12/19 00:46:44;;;;;;;132.90;51.38;;;7.80;99.90;;;;;;5026904;28;20025;-75
2023/12/19 00:49:10;;;;;;;119.00;51.72;;;7.80;99.90;;;;;;5024559;28;20385;-75
2023/12/19 00:51:37;;;;;;;133.02;51.97;;;7.80;99.90;;;;;;5019921;28;20482;-75
2023/12/19 00:54:02;;;;;;;125.43;50.25;;;7.90;99.90;;;;;;5023444;28;20025;-74
2023/12/19 00:56:28;;;;;;;126.63;49.80;;;7.80;99.90;;;;;;5022453;28;20397;-75
2023/12/19 00:58:54;;;;;;;122.85;49.08;;;7.90;99.90;;;;;;5025708;28;20021;-74
2023/12/19 01:01:24;;;;;;;134.77;50.30;;;7.90;99.90;;;;;;5014330;28;20022;-75
2023/12/19 01:03:50;;;;;;;125.13;48.38;;;7.90;99.90;;;;;;5014779;28;20017;-74
2023/12/19 01:06:15;;;;;;;119.75;47.92;;;7.90;99.90;;;;;;5014751;28;20564;-75
2023/12/19 01:08:41;;;;;;;125.32;48.85;;;7.90;99.90;;;;;;5018267;28;20026;-75
2023/12/19 01:11:09;;;;;;;123.80;47.53;;;7.90;99.90;;;;;;5023869;28;20093;-75
2023/12/19 01:13:38;;;;;;;125.57;49.40;;;7.90;99.90;;;;;;5025451;28;20381;-75
2023/12/19 01:16:04;;;;;;;127.40;51.03;;;7.90;99.90;;;;;;5022740;28;20046;-75
2023/12/19 01:18:30;;;;;;;122.10;49.65;;;7.90;99.90;;;;;;5030503;28;20043;-74
2023/12/19 01:20:56;;;;;;;120.97;49.78;;;7.90;99.90;;;;;;5024616;28;20026;-75
2023/12/19 01:23:21;;;;;;;123.45;51.25;;;7.90;99.90;;;;;;5024119;28;20017;-74
2023/12/19 01:25:47;;;;;;;120.43;49.25;;;7.90;99.90;;;;;;5022284;28;20018;-74
2023/12/19 01:28:13;;;;;;;117.65;49.42;;;7.90;99.90;;;;;;5022366;28;20021;-75
2023/12/19 01:30:39;;;;;;;117.82;48.95;;;7.90;99.90;;;;;;5015889;28;20508;-75
2023/12/19 01:33:06;;;;;;;117.28;48.72;;;7.90;99.90;;;;;;5029390;28;20040;-75
2023/12/19 01:35:32;;;;;;;123.15;50.30;;;7.90;99.90;;;;;;5028552;28;20427;-75
2023/12/19 01:37:58;;;;;;;96.95;44.88;;;7.90;99.90;;;;;;5030022;28;20022;-75
2023/12/19 01:40:25;;;;;;;101.03;43.70;;;7.90;99.90;;;;;;5028231;28;20037;-75
2023/12/19 01:42:51;;;;;;;107.72;45.25;;;7.90;99.90;;;;;;5026979;28;20014;-75
2023/12/19 01:45:17;;;;;;;101.03;46.15;;;7.90;99.90;;;;;;5029572;28;20040;-75
2023/12/19 01:47:44;;;;;;;95.35;44.08;;;7.90;99.90;;;;;;5028310;28;20022;-75
2023/12/19 01:50:15;;;;;;;89.82;43.08;;;7.90;99.90;;;;;;5029128;28;20109;-75
2023/12/19 01:52:48;;;;;;;93.30;42.47;;;7.90;99.90;;;;;;5028832;28;20460;-75
2023/12/19 01:55:14;;;;;;;100.53;43.67;;;7.90;99.90;;;;;;5028420;28;20028;-75
2023/12/19 01:57:41;;;;;;;102.50;43.72;;;7.90;99.90;;;;;;5025070;28;20046;-75
2023/12/19 02:00:12;;;;;;;104.80;45.78;;;7.90;99.90;;;;;;5026434;28;20025;-75
2023/12/19 02:02:37;;;;;;;109.93;47.63;;;7.90;99.90;;;;;;5029003;28;20030;-75
2023/12/19 02:05:04;;;;;;;115.90;49.25;;;7.90;99.90;;;;;;5026391;28;20070;-75
2023/12/19 02:07:30;;;;;;;107.85;48.38;;;7.90;99.90;;;;;;5025363;28;20036;-74
2023/12/19 02:09:55;;;;;;;108.07;47.17;;;7.90;99.90;;;;;;5025800;27;20030;-75
2023/12/19 02:12:21;;;;;;;106.25;45.90;;;7.90;99.90;;;;;;5025571;28;20021;-75
2023/12/19 02:14:48;;;;;;;104.63;45.03;;;7.90;99.90;;;;;;5015036;28;20042;-75
2023/12/19 02:17:16;;;;;;;99.38;44.55;;;7.90;99.90;;;;;;5023079;28;20018;-75
2023/12/19 02:19:51;;;;;;;93.50;43.50;;;7.90;99.90;;;;;;5027557;28;20026;-75
2023/12/19 02:22:17;;;;;;;;;;;7.90;99.90;;;;;;5027586;28;20393;-75
2023/12/19 02:24:43;;;;;;;88.38;40.72;;;7.90;99.90;;;;;;5026522;28;19905;-75
2023/12/19 02:27:10;;;;;;;92.45;41.17;;;7.90;99.90;;;;;;5028767;28;20029;-74
2023/12/19 02:29:35;;;;;;;91.57;41.40;;;7.90;99.90;;;;;;5019297;28;20105;-75
2023/12/19 02:32:01;;;;;;;78.47;40.13;;;7.90;99.90;;;;;;5020740;28;20097;-75
2023/12/19 02:34:27;;;;;;;87.18;40.83;;;7.90;99.90;;;;;;5016899;28;20170;-75
2023/12/19 02:36:53;;;;;;;90.68;42.42;;;7.90;99.90;;;;;;5016262;28;20048;-75
2023/12/19 02:39:18;;;;;;;82.88;41.22;;;7.90;99.90;;;;;;5018139;28;20030;-74
2023/12/19 02:41:44;;;;;;;79.22;40.22;;;7.90;99.90;;;;;;5028056;28;20018;-75
2023/12/19 02:44:10;;;;;;;83.82;42.08;;;8.00;99.90;;;;;;5026396;28;20028;-75
2023/12/19 02:46:36;;;;;;;80.35;38.25;;;8.00;99.90;;;;;;5025973;28;20032;-75
2023/12/19 02:49:02;;;;;;;85.53;39.80;;;8.00;99.90;;;;;;5021602;28;20048;-75
2023/12/19 02:51:29;;;;;;;87.30;40.45;;;8.00;99.90;;;;;;5008777;28;20033;-75
2023/12/19 02:53:55;;;;;;;76.22;40.05;;;8.00;99.90;;;;;;5024130;28;20014;-75
2023/12/19 02:56:21;;;;;;;81.15;41.90;;;8.00;99.90;;;;;;5026528;28;20057;-75
2023/12/19 02:58:46;;;;;;;86.32;40.72;;;8.00;99.90;;;;;;5022014;28;20514;-75
2023/12/19 03:01:12;;;;;;;79.82;41.58;;;8.00;99.90;;;;;;5028027;28;20021;-75
2023/12/19 03:03:42;;;;;;;82.07;39.85;;;8.00;99.90;;;;;;5025027;28;20026;-75
2023/12/19 03:06:07;;;;;;;75.22;39.05;;;8.00;99.90;;;;;;5019955;28;20017;-74
2023/12/19 03:08:36;;;;;;;81.05;39.97;;;8.00;99.90;;;;;;5020896;28;20021;-75
2023/12/19 03:11:02;;;;;;;78.25;39.42;;;8.10;99.90;;;;;;5019837;28;20087;-75
2023/12/19 03:13:28;;;;;;;88.78;41.28;;;8.10;99.90;;;;;;5026880;28;20021;-75
2023/12/19 03:15:54;;;;;;;81.53;42.55;;;8.10;99.90;;;;;;5023027;28;20551;-75
2023/12/19 03:18:24;;;;;;;85.38;42.35;;;8.10;99.90;;;;;;5024517;28;20064;-75
2023/12/19 03:20:53;;;;;;;89.47;43.60;;;8.10;99.90;;;;;;5028724;28;20010;-75
2023/12/19 03:23:19;;;;;;;94.32;42.90;;;8.10;99.90;;;;;;5020466;28;20329;-75
2023/12/19 03:25:45;;;;;;;87.93;44.13;;;8.10;99.90;;;;;;5014682;28;20029;-75
2023/12/19 03:28:11;;;;;;;95.68;43.20;;;8.10;99.90;;;;;;5014405;28;20030;-75
2023/12/19 03:30:37;;;;;;;88.63;43.47;;;8.10;99.90;;;;;;5012117;28;20026;-74
2023/12/19 03:33:02;;;;;;;89.40;41.90;;;8.10;99.90;;;;;;5009935;28;20091;-74
2023/12/19 03:35:28;;;;;;;85.18;40.50;;;8.10;99.90;;;;;;5021870;28;20026;-75
2023/12/19 03:37:54;;;;;;;79.72;39.58;;;8.10;99.90;;;;;;5019922;28;20034;-75
2023/12/19 03:40:19;;;;;;;74.10;37.22;;;8.10;99.90;;;;;;5028074;28;20034;-75
2023/12/19 03:42:45;;;;;;;62.60;32.35;;;8.10;99.90;;;;;;5025874;28;20021;-75
2023/12/19 03:45:11;;;;;;;63.08;33.53;;;8.10;99.90;;;;;;5017527;28;20022;-75
2023/12/19 03:47:38;;;;;;;59.72;33.92;;;8.10;99.90;;;;;;5030227;27;20435;-75
2023/12/19 03:50:04;;;;;;;60.95;34.38;;;8.10;99.90;;;;;;5027760;28;20064;-75
2023/12/19 03:52:30;;;;;;;69.80;36.17;;;8.10;99.90;;;;;;5026850;28;20036;-75
2023/12/19 03:54:56;;;;;;;82.05;38.53;;;8.10;99.90;;;;;;5026334;28;20022;-75
2023/12/19 03:57:21;;;;;;;71.93;39.72;;;8.10;99.90;;;;;;5022389;28;20026;-75
2023/12/19 03:59:47;;;;;;;73.35;38.55;;;8.20;99.90;;;;;;5027529;28;20033;-75
2023/12/19 04:02:13;;;;;;;72.90;38.00;;;8.20;99.90;;;;;;5009398;28;20029;-74
2023/12/19 04:04:38;;;;;;;71.70;36.95;;;8.20;99.90;;;;;;5013677;28;20484;-75
2023/12/19 04:07:04;;;;;;;68.28;37.90;;;8.30;99.90;;;;;;5095279;28;20036;-75
2023/12/19 04:09:30;;;;;;;67.57;36.55;;;8.30;99.90;;;;;;5025375;28;20040;-74
2023/12/19 04:11:55;;;;;;;65.13;35.50;;;8.30;99.90;;;;;;5095250;28;20259;-75
2023/12/19 04:14:23;;;;;;;64.43;35.30;;;8.30;99.90;;;;;;5022306;28;20037;-75
2023/12/19 04:16:49;;;;;;;62.60;32.90;;;8.30;99.90;;;;;;5024796;28;20037;-75
2023/12/19 04:19:14;;;;;;;57.00;33.08;;;8.30;99.90;;;;;;5019822;28;20030;-75
2023/12/19 04:21:41;;;;;;;59.83;30.92;;;8.30;99.90;;;;;;5022447;28;20102;-74
2023/12/19 04:24:07;;;;;;;56.42;30.83;;;8.30;99.90;;;;;;5022493;28;20025;-75
2023/12/19 04:26:32;;;;;;;60.92;30.80;;;8.30;99.90;;;;;;5017315;28;20474;-75
2023/12/19 04:28:58;;;;;;;54.30;28.27;;;8.30;99.90;;;;;;5021634;28;20026;-75
2023/12/19 04:31:24;;;;;;;58.15;30.27;;;8.30;99.90;;;;;;5014370;28;20371;-75
2023/12/19 04:33:49;;;;;;;55.67;30.08;;;8.30;99.90;;;;;;5022187;28;20026;-75
2023/12/19 04:36:15;;;;;;;57.83;29.70;;;8.30;99.90;;;;;;5008697;28;20033;-74
2023/12/19 04:38:40;;;;;;;55.50;29.25;;;8.40;99.90;;;;;;5013107;28;20070;-75
2023/12/19 04:41:06;;;;;;;58.05;29.27;;;8.40;99.90;;;;;;5026294;28;20143;-74
2023/12/19 04:43:32;;;;;;;52.70;30.30;;;8.40;99.90;;;;;;5025564;28;20265;-74
2023/12/19 04:45:59;;;;;;;57.10;29.65;;;8.40;99.90;;;;;;5022181;28;20026;-75
2023/12/19 04:48:25;;;;;;;74.68;33.92;;;8.40;99.90;;;;;;5023288;28;20018;-74
2023/12/19 04:50:50;;;;;;;63.80;33.28;;;8.40;99.90;;;;;;5096420;28;20603;-74
2023/12/19 04:53:16;;;;;;;64.35;33.75;;;8.40;99.90;;;;;;5033271;28;20021;-74
2023/12/19 04:55:41;;;;;;;72.97;35.53;;;8.40;99.90;;;;;;5024610;28;20053;-74
2023/12/19 04:58:07;;;;;;;82.72;37.42;;;8.40;99.90;;;;;;5027361;28;20026;-74
2023/12/19 05:00:33;;;;;;;82.32;36.05;;;8.40;99.90;;;;;;5026406;28;20044;-74
2023/12/19 05:02:58;;;;;;;71.70;37.75;;;8.40;99.90;;;;;;5025015;28;20046;-75
2023/12/19 05:05:24;;;;;;;67.93;34.33;;;8.40;99.90;;;;;;5095453;28;20022;-74
2023/12/19 05:07:49;;;;;;;65.72;35.45;;;8.40;99.90;;;;;;5028079;28;20059;-74
2023/12/19 05:10:15;;;;;;;74.95;36.15;;;8.40;99.90;;;;;;5018184;28;20022;-74
2023/12/19 05:12:40;;;;;;;74.30;35.58;;;8.40;99.90;;;;;;5025116;28;20025;-74
2023/12/19 05:15:06;;;;;;;68.78;35.35;;;8.40;99.90;;;;;;5028444;28;20054;-74
2023/12/19 05:17:32;;;;;;;70.65;36.25;;;8.40;99.90;;;;;;5023592;28;20049;-74
2023/12/19 05:19:59;;;;;;;65.78;34.97;;;8.50;99.90;;;;;;5025961;28;20022;-74
2023/12/19 05:22:25;;;;;;;68.10;36.15;;;8.50;99.90;;;;;;5021206;28;20097;-74
2023/12/19 05:24:50;;;;;;;74.20;37.63;;;8.50;99.90;;;;;;5028409;28;20097;-75
2023/12/19 05:27:16;;;;;;;68.00;35.08;;;8.50;99.90;;;;;;5023179;28;20029;-75
2023/12/19 05:29:43;;;;;;;66.03;34.08;;;8.50;99.90;;;;;;5029678;28;20063;-75
2023/12/19 05:32:10;;;;;;;58.88;33.45;;;8.60;99.90;;;;;;5017198;28;20022;-75
2023/12/19 05:34:35;;;;;;;61.83;34.00;;;8.60;99.90;;;;;;5013801;28;20052;-75
2023/12/19 05:37:01;;;;;;;62.08;34.55;;;8.60;99.90;;;;;;5027375;28;20029;-75
2023/12/19 05:39:27;;;;;;;71.68;37.45;;;8.60;99.90;;;;;;5013280;28;20029;-75
2023/12/19 05:41:56;;;;;;;64.88;35.92;;;8.70;99.90;;;;;;5086474;28;20416;-75
2023/12/19 05:44:22;;;;;;;66.63;36.97;;;8.70;99.90;;;;;;5021297;28;20486;-75
2023/12/19 05:46:48;;;;;;;74.90;35.88;;;8.70;99.90;;;;;;5019338;28;20316;-75
2023/12/19 05:49:13;;;;;;;65.55;36.95;;;8.70;99.90;;;;;;5102752;28;20484;-74
2023/12/19 05:51:39;;;;;;;72.72;36.95;;;8.70;99.90;;;;;;5082307;28;20033;-74
2023/12/19 05:54:05;;;;;;;64.53;36.33;;;8.70;99.90;;;;;;5011140;28;20044;-74
2023/12/19 05:56:31;;;;;;;77.78;37.15;;;8.70;99.90;;;;;;5010717;28;20030;-74
2023/12/19 05:58:57;;;;;;;72.38;36.95;;;8.70;99.90;;;;;;5019724;28;20390;-74
2023/12/19 06:01:23;;;;;;;64.82;35.58;;;8.70;99.90;;;;;;5021788;28;20026;-74
2023/12/19 06:03:48;;;;;;;72.95;35.88;;;8.80;99.90;;;;;;5018032;28;20022;-74
2023/12/19 06:06:14;;;;;;;69.63;33.75;;;8.80;99.90;;;;;;5023401;28;20024;-74
2023/12/19 06:08:42;;;;;;;63.15;34.90;;;8.80;99.90;;;;;;5046556;28;20041;-74
2023/12/19 06:11:08;;;;;;;68.88;34.67;;;8.80;99.90;;;;;;5035917;28;20077;-74
2023/12/19 06:13:33;;;;;;;74.63;35.55;;;8.90;99.90;;;;;;5029586;28;20025;-74
2023/12/19 06:15:59;;;;;;;69.20;34.17;;;8.90;99.90;;;;;;5025005;27;20057;-74
2023/12/19 06:18:25;;;;;;;75.13;35.15;;;8.90;99.90;;;;;;5020924;28;20029;-74
2023/12/19 06:20:50;;;;;;;73.95;34.13;;;8.90;99.90;;;;;;5015112;28;20478;-74
2023/12/19 06:23:16;;;;;;;72.25;34.38;;;8.90;99.90;;;;;;5030417;28;20018;-74
2023/12/19 06:25:42;;;;;;;71.78;34.53;;;8.90;99.90;;;;;;5030399;28;20390;-74
2023/12/19 06:28:08;;;;;;;70.82;35.53;;;8.90;99.90;;;;;;5020856;28;20033;-74
2023/12/19 06:30:33;;;;;;;73.60;36.08;;;9.00;99.90;;;;;;5023341;28;20033;-74
2023/12/19 06:32:59;;;;;;;78.18;37.47;;;9.00;99.90;;;;;;5034988;28;20073;-74
2023/12/19 06:35:28;;;;;;;73.32;34.55;;;9.00;99.90;;;;;;5038471;28;20022;-74
2023/12/19 06:37:54;;;;;;;78.65;36.15;;;9.00;99.90;;;;;;5030402;28;20033;-74
2023/12/19 06:40:20;;;;;;;72.00;34.67;;;9.00;99.90;;;;;;5025244;28;20025;-74
2023/12/19 06:42:47;;;;;;;82.05;36.45;;;9.00;99.90;;;;;;5017265;27;20049;-74
2023/12/19 06:45:13;;;;;;;82.60;37.53;;;9.00;99.90;;;;;;5020341;28;20029;-74
2023/12/19 06:47:39;;;;;;;78.22;37.83;;;9.00;99.90;;;;;;5015310;28;20091;-74
2023/12/19 06:50:05;;;;;;;84.43;39.85;;;9.10;99.90;;;;;;5024532;28;20105;-73
2023/12/19 06:52:31;;;;;;;89.70;40.72;;;9.10;99.90;;;;;;5025664;28;20044;-74
2023/12/19 06:54:56;;;;;;;93.50;42.03;;;9.10;99.90;;;;;;5019818;28;20028;-74
2023/12/19 06:57:22;;;;;;;86.07;40.88;;;9.10;99.90;;;;;;5013013;28;20083;-74
2023/12/19 06:59:47;;;;;;;103.75;41.05;;;9.10;99.90;;;;;;5017190;28;20025;-74
2023/12/19 07:02:13;;;;;;;99.25;42.58;;;9.10;99.90;;;;;;5026223;28;20029;-74
2023/12/19 07:04:39;;;;;;;95.20;40.88;;;9.10;99.90;;;;;;5020403;28;20035;-74
2023/12/19 07:07:04;;;;;;;94.93;40.40;;;9.20;99.90;;;;;;5021697;28;20037;-74
2023/12/19 07:09:30;;;;;;;90.97;39.83;;;9.20;99.90;;;;;;5023853;28;20022;-74
2023/12/19 07:11:57;;;;;;;83.22;37.75;;;9.20;99.90;;;;;;5009999;27;20026;-74
2023/12/19 07:14:23;;;;;;;79.72;38.72;;;9.20;99.90;;;;;;5015705;28;20013;-74
2023/12/19 07:16:48;;;;;;;80.75;38.45;;;9.20;99.90;;;;;;5013487;28;20436;-74
2023/12/19 07:19:14;;;;;;;63.03;35.45;;;9.20;99.90;;;;;;5014426;28;20433;-74
2023/12/19 07:21:39;;;;;;;74.72;35.88;;;9.20;99.90;;;;;;5013217;28;20238;-74
2023/12/19 07:24:05;;;;;;;64.50;32.85;;;9.20;99.90;;;;;;5010027;28;20105;-74
2023/12/19 07:26:31;;;;;;;67.53;32.75;;;9.20;99.90;;;;;;5008082;28;20022;-74
2023/12/19 07:28:57;;;;;;;62.40;31.33;;;9.20;99.90;;;;;;5012408;28;20089;-74
2023/12/19 07:31:27;;;;;;;55.38;30.88;;;9.20;99.90;;;;;;5017390;28;20029;-74
2023/12/19 07:33:57;;;;;;;60.33;31.90;;;9.20;99.90;;;;;;5012928;28;20026;-74
2023/12/19 07:36:24;;;;;;;50.28;30.40;;;9.20;99.90;;;;;;5020276;28;20393;-74
2023/12/19 07:38:50;;;;;;;60.13;31.08;;;9.10;99.90;;;;;;5025964;28;20025;-74
2023/12/19 07:41:16;;;;;;;57.83;29.10;;;9.10;99.90;;;;;;5026920;28;20037;-74
2023/12/19 07:43:41;;;;;;;53.03;29.67;;;9.10;99.90;;;;;;5018419;28;20026;-74
2023/12/19 07:46:07;;;;;;;51.00;30.88;;;9.10;99.90;;;;;;5016000;28;20581;-74
2023/12/19 07:48:33;;;;;;;60.13;30.42;;;9.10;99.90;;;;;;5027913;28;20022;-74
2023/12/19 07:50:59;;;;;;;57.90;31.75;;;9.10;99.90;;;;;;5025518;28;20109;-73
2023/12/19 07:53:28;;;;;;;58.33;32.17;;;9.10;99.90;;;;;;5024703;28;20155;-74
2023/12/19 07:55:55;;;;;;;59.30;33.15;;;9.10;99.90;;;;;;5021901;28;20416;-74
2023/12/19 07:58:20;;;;;;;66.78;34.45;;;9.10;99.90;;;;;;5025800;28;20018;-74
2023/12/19 08:00:47;;;;;;;67.15;33.95;;;9.00;99.90;;;;;;5022917;28;20056;-74
2023/12/19 08:03:15;;;;;;;66.15;34.92;;;9.10;99.90;;;;;;5026119;28;20431;-74
2023/12/19 08:05:50;;;;;;;70.35;35.08;;;9.10;99.90;;;;;;5014339;28;20037;-74
2023/12/19 08:08:19;;;;;;;61.33;32.92;;;9.00;99.90;;;;;;5080205;28;20044;-74
2023/12/19 08:10:45;;;;;;;67.72;34.28;;;9.00;99.90;;;;;;5091955;28;20054;-74
2023/12/19 08:13:12;;;;;;;61.03;33.60;;;9.00;99.90;;;;;;5018775;28;20057;-74
2023/12/19 08:15:37;;;;;;;59.70;32.55;;;9.00;99.90;;;;;;5025762;28;20045;-74
2023/12/19 08:18:03;;;;;;;61.13;31.83;;;9.00;99.90;;;;;;5022099;28;20102;-74
2023/12/19 08:20:28;;;;;;;59.08;31.80;;;9.00;99.90;;;;;;5022438;28;20751;-74
2023/12/19 08:22:54;;;;;;;57.53;31.00;;;9.00;99.90;;;;;;5023151;28;20370;-74
2023/12/19 08:25:20;;;;;;;49.53;28.85;;;9.00;99.90;;;;;;5020005;28;20014;-74
2023/12/19 08:27:46;;;;;;;52.30;29.83;;;9.00;99.90;;;;;;5027161;28;20029;-74
2023/12/19 08:30:12;;;;;;;52.83;29.85;;;9.00;99.90;;;;;;5026620;28;20025;-74
2023/12/19 08:32:39;;;;;;;50.03;29.60;;;9.00;99.90;;;;;;5019395;28;20064;-74
2023/12/19 08:35:05;;;;;;;47.95;29.70;;;9.00;99.90;;;;;;5024841;28;20052;-74
2023/12/19 08:37:31;;;;;;;49.92;30.60;;;9.00;99.90;;;;;;5022571;28;20055;-74
2023/12/19 08:39:59;;;;;;;48.97;28.50;;;9.00;99.90;;;;;;5019981;28;20026;-74
2023/12/19 08:42:25;;;;;;;54.15;30.75;;;9.00;99.90;;;;;;5026007;28;20045;-74
2023/12/19 08:44:51;;;;;;;50.75;28.88;;;9.00;99.90;;;;;;5022965;28;20034;-74
2023/12/19 08:47:17;;;;;;;45.38;28.40;;;9.00;99.90;;;;;;5014786;28;20474;-74
2023/12/19 08:49:43;;;;;;;50.60;28.67;;;9.00;99.90;;;;;;5021171;28;20053;-74
2023/12/19 08:52:12;;;;;;;47.85;28.80;;;9.00;99.90;;;;;;5021102;28;20049;-74
2023/12/19 08:54:38;;;;;;;48.30;27.95;;;9.00;99.90;;;;;;5025263;28;20057;-74
2023/12/19 08:57:07;;;;;;;43.00;27.80;;;9.00;99.90;;;;;;5017570;28;20042;-74
2023/12/19 08:59:32;;;;;;;45.50;27.70;;;9.00;99.90;;;;;;5022841;28;20181;-74
2023/12/19 09:01:58;;;;;;;47.05;28.23;;;9.00;99.90;;;;;;5026565;28;20101;-74
2023/12/19 09:04:24;;;;;;;52.05;28.35;;;9.00;99.90;;;;;;5023498;28;20130;-74
2023/12/19 09:06:50;;;;;;;53.42;29.45;;;9.00;99.90;;;;;;5016903;28;20055;-74
2023/12/19 09:09:16;;;;;;;52.72;30.73;;;9.00;99.90;;;;;;5026124;28;20033;-74
2023/12/19 09:11:42;;;;;;;50.15;29.35;;;9.00;99.90;;;;;;5022207;28;20082;-74
2023/12/19 09:14:11;;;;;;;50.10;29.05;;;9.00;99.90;;;;;;5020321;28;20026;-74
2023/12/19 09:16:37;;;;;;;53.08;28.08;;;9.10;99.90;;;;;;5026756;28;20050;-74
2023/12/19 09:19:03;;;;;;;47.17;27.20;;;9.10;99.90;;;;;;5026493;28;20450;-74
2023/12/19 09:21:29;;;;;;;45.25;27.02;;;9.10;99.90;;;;;;5025473;28;20026;-74
2023/12/19 09:23:54;;;;;;;46.15;27.15;;;9.10;99.90;;;;;;5025438;28;20385;-74
2023/12/19 09:26:20;;;;;;;46.97;27.92;;;9.10;99.90;;;;;;5024524;28;20056;-74
2023/12/19 09:28:46;;;;;;;50.13;28.00;;;9.10;99.90;;;;;;5023157;28;20021;-74
2023/12/19 09:31:12;;;;;;;45.22;26.33;;;9.10;99.90;;;;;;5021185;28;20150;-74
2023/12/19 09:33:39;;;;;;;46.10;26.10;;;9.10;99.90;;;;;;5026575;28;20025;-73
2023/12/19 09:36:08;;;;;;;46.13;26.65;;;9.10;99.90;;;;;;5025625;28;20018;-74
2023/12/19 09:38:35;;;;;;;44.20;27.25;;;9.10;99.90;;;;;;5096910;28;20102;-74
2023/12/19 09:41:02;;;;;;;42.80;25.10;;;9.10;99.90;;;;;;5029084;28;20040;-74
2023/12/19 09:43:32;;;;;;;51.92;26.55;;;9.10;99.90;;;;;;5029441;28;20393;-74
2023/12/19 09:46:01;;;;;;;45.67;25.98;;;9.10;99.90;;;;;;5028327;28;20154;-74
2023/12/19 09:48:33;;;;;;;45.30;25.40;;;9.10;99.90;;;;;;5018866;28;20032;-74
2023/12/19 09:51:03;;;;;;;47.05;25.90;;;9.20;99.90;;;;;;5029053;28;20374;-74
2023/12/19 09:53:34;;;;;;;41.72;24.83;;;9.20;99.90;;;;;;5029457;28;20351;-74
2023/12/19 09:56:00;;;;;;;41.40;24.55;;;9.20;99.90;;;;;;5027435;28;20026;-74
2023/12/19 09:58:29;;;;;;;37.03;23.63;;;9.20;99.90;;;;;;5028892;28;20128;-74
2023/12/19 10:00:59;;;;;;;39.38;23.15;;;9.20;99.90;;;;;;5026821;28;20393;-74
2023/12/19 10:03:27;;;;;;;41.05;21.73;;;9.20;99.90;;;;;;5019425;28;20020;-74
2023/12/19 10:05:53;;;;;;;32.88;20.95;;;9.20;99.90;;;;;;5024525;28;20020;-74
2023/12/19 10:08:19;;;;;;;35.78;20.70;;;9.20;99.90;;;;;;5028974;28;20500;-74
2023/12/19 10:10:56;;;;;;;35.55;21.48;;;9.20;99.90;;;;;;5020896;28;20022;-74
2023/12/19 10:13:32;;;;;;;38.15;21.52;;;9.20;99.90;;;;;;5026846;28;20257;-74
2023/12/19 10:16:06;;;;;;;36.88;19.65;;;9.20;99.90;;;;;;5025153;28;20506;-74
2023/12/19 10:18:39;;;;;;;34.78;19.05;;;9.20;99.90;;;;;;5025290;28;20032;-74
2023/12/19 10:21:15;;;;;;;32.65;19.83;;;9.20;99.90;;;;;;5026002;28;20037;-74
2023/12/19 10:23:41;;;;;;;35.47;19.60;;;9.30;99.90;;;;;;5027734;28;20033;-73
2023/12/19 10:26:08;;;;;;;30.90;18.98;;;9.30;99.90;;;;;;5024227;28;20022;-74
2023/12/19 10:28:35;;;;;;;32.38;19.10;;;9.30;99.90;;;;;;5024092;28;20490;-73
2023/12/19 10:31:15;;;;;;;30.70;18.63;;;9.30;99.90;;;;;;5027587;28;20029;-74
2023/12/19 10:33:49;;;;;;;28.85;17.42;;;9.30;99.90;;;;;;5028953;28;20054;-74
2023/12/19 10:36:29;;;;;;;33.60;19.25;;;9.30;99.90;;;;;;5021661;28;20037;-74
2023/12/19 10:38:58;;;;;;;36.40;19.60;;;9.30;99.90;;;;;;5021443;28;20120;-73
2023/12/19 10:41:31;;;;;;;31.95;20.23;;;9.30;99.90;;;;;;5026326;28;20025;-73
2023/12/19 10:43:58;;;;;;;32.50;19.30;;;9.30;99.90;;;;;;5028435;28;20021;-73
2023/12/19 10:46:27;;;;;;;31.27;18.73;;;9.30;99.90;;;;;;5011044;28;20025;-73
2023/12/19 10:48:57;;;;;;;29.60;19.42;;;9.30;99.90;;;;;;5020523;28;20021;-73
2023/12/19 10:51:39;;;;;;;27.35;18.17;;;9.30;99.90;;;;;;5028118;28;20033;-73
2023/12/19 10:54:08;;;;;;;27.23;18.52;;;9.30;99.90;;;;;;5027421;28;20124;-73
2023/12/19 10:56:59;;;;;;;28.08;20.08;;;9.30;99.90;;;;;;5028299;28;20486;-73
2023/12/19 10:59:46;;;;;;;28.15;18.65;;;9.30;99.90;;;;;;5015806;28;20030;-73
2023/12/19 11:02:36;;;;;;;28.95;18.45;;;9.30;99.90;;;;;;5026521;28;20033;-73
2023/12/19 11:05:09;;;;;;;24.48;17.45;;;9.30;99.90;;;;;;5017267;28;20085;-73
2023/12/19 11:07:35;;;;;;;25.98;17.35;;;9.30;99.90;;;;;;5019211;28;20494;-73
2023/12/19 11:10:05;;;;;;;25.92;17.00;;;9.30;99.90;;;;;;5017316;28;20068;-73
2023/12/19 11:12:32;;;;;;;26.30;16.77;;;9.30;99.90;;;;;;5026386;28;20038;-73
2023/12/19 11:14:58;;;;;;;23.20;16.20;;;9.30;99.90;;;;;;5027851;28;20531;-73
2023/12/19 11:17:42;;;;;;;23.98;14.88;;;9.30;99.90;;;;;;5027590;28;20069;-73
2023/12/19 11:20:14;;;;;;;20.02;14.50;;;9.30;99.90;;;;;;5019847;28;20021;-73
2023/12/19 11:22:50;;;;;;;22.98;14.52;;;9.30;99.90;;;;;;5026099;28;20018;-73
2023/12/19 11:25:26;;;;;;;22.60;14.32;;;9.30;99.90;;;;;;5026694;28;20022;-73
2023/12/19 11:28:03;;;;;;;23.40;14.48;;;9.30;99.90;;;;;;5018415;28;20026;-73
2023/12/19 11:30:40;;;;;;;25.40;14.35;;;9.30;99.90;;;;;;5027285;27;20112;-73
2023/12/19 11:33:11;;;;;;;21.02;14.07;;;9.30;99.90;;;;;;5027715;28;20038;-73
2023/12/19 11:35:37;;;;;;;21.30;13.85;;;9.30;99.90;;;;;;5025659;28;20053;-73
2023/12/19 11:38:15;;;;;;;22.20;14.27;;;9.30;99.90;;;;;;5026728;28;20037;-73
2023/12/19 11:40:51;;;;;;;20.67;14.48;;;9.30;99.90;;;;;;5027371;28;20025;-73
2023/12/19 11:43:28;;;;;;;17.65;13.43;;;9.30;99.90;;;;;;5026187;28;20539;-73
2023/12/19 11:45:58;;;;;;;19.35;13.27;;;9.30;99.90;;;;;;5025953;28;20089;-73
2023/12/19 11:48:34;;;;;;;21.10;13.85;;;9.30;99.90;;;;;;5027768;28;20053;-73
2023/12/19 11:51:00;;;;;;;17.70;12.88;;;9.30;99.90;;;;;;5025264;28;20060;-73
2023/12/19 11:53:25;;;;;;;21.33;13.63;;;9.30;99.90;;;;;;5010701;28;20058;-73
2023/12/19 11:56:05;;;;;;;19.95;13.48;;;9.30;99.90;;;;;;5089524;28;20497;-74
2023/12/19 11:58:31;;;;;;;16.70;12.05;;;9.30;99.90;;;;;;5015374;28;20042;-73
2023/12/19 12:01:02;;;;;;;17.17;12.13;;;9.30;99.90;;;;;;5014582;28;20029;-73
2023/12/19 12:03:28;;;;;;;15.93;11.88;;;9.30;99.90;;;;;;5018057;28;20025;-73
2023/12/19 12:05:54;;;;;;;17.33;10.57;;;9.30;99.90;;;;;;5027201;28;20026;-73
2023/12/19 12:08:21;;;;;;;15.50;11.55;;;9.30;99.90;;;;;;5026519;28;20041;-73
2023/12/19 12:11:07;;;;;;;17.95;11.50;;;9.30;99.90;;;;;;5027458;28;20151;-73
2023/12/19 12:13:36;;;;;;;18.00;11.55;;;9.30;99.90;;;;;;5014590;28;20029;-74
2023/12/19 12:16:05;;;;;;;16.10;10.93;;;9.40;99.90;;;;;;5012138;28;20053;-72
2023/12/19 12:18:31;;;;;;;16.65;11.00;;;9.40;99.90;;;;;;5027549;28;20045;-72
2023/12/19 12:21:07;;;;;;;13.35;9.65;;;9.40;99.90;;;;;;5021514;28;20021;-72
2023/12/19 12:23:33;;;;;;;15.68;10.38;;;9.40;99.90;;;;;;5027082;28;20022;-72
2023/12/19 12:25:59;;;;;;;16.60;9.93;;;9.40;99.90;;;;;;5026756;28;20025;-72
2023/12/19 12:28:26;;;;;;;12.98;9.50;;;9.40;99.90;;;;;;5019902;28;20109;-72
2023/12/19 12:30:59;;;;;;;11.88;8.90;;;9.40;99.90;;;;;;5026441;28;20104;-72
2023/12/19 12:33:31;;;;;;;12.15;9.05;;;9.40;99.90;;;;;;5025302;28;20022;-74
2023/12/19 12:35:57;;;;;;;10.45;7.95;;;9.40;99.90;;;;;;5022163;28;20030;-72